createdAt,value
2023-01-13T12:02:33.762Z,3.00
2023-01-13T12:04:28.609Z,6.60
2023-01-13T12:06:15.902Z,5.00
2023-01-13T12:07:53.807Z,3.80
2023-01-13T12:09:35.443Z,5.00
2023-01-13T12:11:15.335Z,4.00
2023-01-13T12:12:57.368Z,3.20
2023-01-13T12:14:37.288Z,4.80
2023-01-13T12:16:28.172Z,3.40
2023-01-13T12:18:07.013Z,5.40
2023-01-13T12:19:39.094Z,5.20
2023-01-13T12:21:22.068Z,4.00
2023-01-13T12:22:54.612Z,4.40
2023-01-13T12:24:30.469Z,4.40
2023-01-13T12:26:07.624Z,4.60
2023-01-13T12:27:48.285Z,3.20
2023-01-13T12:29:20.428Z,3.20
2023-01-13T12:30:55.296Z,3.00
2023-01-13T12:32:34.728Z,3.80
2023-01-13T12:34:45.016Z,4.20
2023-01-13T12:36:30.978Z,3.40
2023-01-13T12:38:11.689Z,3.60
2023-01-13T12:40:05.191Z,3.80
2023-01-13T12:42:03.826Z,3.80
2023-01-13T12:43:54.652Z,5.20
2023-01-13T12:45:28.724Z,6.60
2023-01-13T12:47:00.765Z,3.80
2023-01-13T12:48:53.133Z,3.60
2023-01-13T12:50:24.993Z,4.00
2023-01-13T12:51:56.794Z,5.20
2023-01-13T12:53:32.758Z,6.00
2023-01-13T12:55:09.094Z,6.20
2023-01-13T12:56:44.957Z,10.40
2023-01-13T12:58:17.467Z,3.00
2023-01-13T13:00:05.147Z,5.60
2023-01-13T13:01:37.525Z,5.40
2023-01-13T13:03:15.461Z,3.00
2023-01-13T13:04:52.190Z,6.20
2023-01-13T13:06:24.463Z,4.80
2023-01-13T13:08:44.167Z,4.40
2023-01-13T13:10:25.831Z,3.80
2023-01-13T13:12:04.321Z,3.40
2023-01-13T13:13:48.885Z,5.40
2023-01-13T13:15:27.953Z,3.40
2023-01-13T13:17:01.319Z,5.00
2023-01-13T13:18:33.582Z,3.00
2023-01-13T13:20:25.752Z,3.20
2023-01-13T13:22:13.076Z,6.80
2023-01-13T13:23:57.303Z,3.00
2023-01-13T13:25:29.599Z,3.20
2023-01-13T13:27:26.708Z,3.40
2023-01-13T13:29:16.828Z,3.40
2023-01-13T13:31:00.840Z,7.00
2023-01-13T13:33:02.167Z,2.00
2023-01-13T13:35:04.090Z,3.00
2023-01-13T13:36:41.916Z,4.00
2023-01-13T13:38:41.027Z,5.40
2023-01-13T13:40:31.525Z,3.20
2023-01-13T13:42:37.001Z,4.60
2023-01-13T13:44:43.895Z,3.40
2023-01-13T13:46:47.596Z,3.00
2023-01-13T13:48:26.186Z,3.40
2023-01-13T13:50:07.038Z,4.40
2023-01-13T13:51:49.536Z,3.00
2023-01-13T13:53:21.824Z,4.00
2023-01-13T13:54:55.843Z,3.00
2023-01-13T13:56:27.985Z,7.60
2023-01-13T13:58:01.727Z,9.60
2023-01-13T13:59:34.728Z,8.00
2023-01-13T14:01:06.933Z,7.00
2023-01-13T14:02:38.986Z,4.00
2023-01-13T14:04:20.247Z,5.60
2023-01-13T14:06:00.033Z,5.80
2023-01-13T14:07:32.056Z,7.20
2023-01-13T14:09:04.313Z,3.80
2023-01-13T14:10:37.727Z,5.60
2023-01-13T14:12:17.154Z,5.20
2023-01-13T14:14:00.322Z,6.80
2023-01-13T14:15:34.461Z,3.40
2023-01-13T14:17:06.403Z,3.00
2023-01-13T14:18:48.216Z,5.60
2023-01-13T14:20:20.380Z,5.40
2023-01-13T14:21:52.665Z,3.60
2023-01-13T14:23:31.552Z,6.00
2023-01-13T14:25:05.515Z,4.00
2023-01-13T14:26:37.854Z,5.20
2023-01-13T14:28:28.099Z,4.60
2023-01-13T14:30:00.780Z,9.20
2023-01-13T14:31:32.979Z,6.00
2023-01-13T14:33:05.821Z,5.80
2023-01-13T14:34:37.966Z,7.20
2023-01-13T14:36:25.588Z,7.80
2023-01-13T14:38:04.487Z,6.60
2023-01-13T14:39:40.826Z,5.20
2023-01-13T14:41:26.479Z,5.00
2023-01-13T14:43:00.955Z,6.60
2023-01-13T14:44:35.147Z,4.60
2023-01-13T14:46:07.344Z,3.00
2023-01-13T14:47:39.741Z,5.40
2023-01-13T14:49:38.321Z,4.00
2023-01-13T14:51:11.202Z,6.20
2023-01-13T14:52:51.029Z,4.00
2023-01-13T14:54:58.243Z,5.00
2023-01-13T14:56:44.316Z,4.80
2023-01-13T14:58:22.057Z,6.00
2023-01-13T15:00:16.346Z,3.00
2023-01-13T15:01:48.312Z,4.40
2023-01-13T15:03:20.929Z,4.00
2023-01-13T15:04:58.787Z,5.20
2023-01-13T15:06:31.294Z,5.40
2023-01-13T15:08:12.630Z,4.80
2023-01-13T15:09:45.679Z,4.80
2023-01-13T15:11:27.308Z,2.00
2023-01-13T15:13:03.290Z,4.20
2023-01-13T15:14:36.393Z,6.00
2023-01-13T15:16:15.427Z,5.20
2023-01-13T15:17:47.344Z,3.60
2023-01-13T15:19:19.302Z,1.80
2023-01-13T15:20:51.384Z,14.80
2023-01-13T15:22:23.755Z,12.20
2023-01-13T15:23:55.919Z,16.80
2023-01-13T15:25:32.876Z,10.60
2023-01-13T15:27:12.068Z,10.20
2023-01-13T15:28:44.053Z,8.40
2023-01-13T15:30:18.395Z,10.00
2023-01-13T15:31:50.482Z,11.00
2023-01-13T15:33:22.641Z,3.80
2023-01-13T15:34:54.594Z,7.60
2023-01-13T15:36:28.614Z,6.60
2023-01-13T15:38:00.455Z,5.40
2023-01-13T15:39:32.546Z,6.60
2023-01-13T15:41:04.517Z,7.60
2023-01-13T15:42:54.948Z,6.80
2023-01-13T15:44:45.362Z,4.80
2023-01-13T15:46:36.569Z,7.00
2023-01-13T15:48:08.424Z,4.20
2023-01-13T15:49:42.075Z,6.60
2023-01-13T15:51:14.149Z,5.80
2023-01-13T15:52:46.216Z,6.20
2023-01-13T15:54:20.219Z,4.60
2023-01-13T15:55:53.870Z,7.80
2023-01-13T15:57:29.769Z,5.00
2023-01-13T15:59:01.657Z,9.00
2023-01-13T16:00:33.744Z,6.00
2023-01-13T16:02:12.307Z,4.80
2023-01-13T16:03:44.627Z,4.80
2023-01-13T16:05:16.638Z,4.40
2023-01-13T16:06:48.553Z,5.60
2023-01-13T16:08:21.919Z,5.40
2023-01-13T16:09:53.905Z,6.00
2023-01-13T16:11:25.896Z,2.40
2023-01-13T16:12:57.883Z,6.20
2023-01-13T16:14:29.834Z,5.00
2023-01-13T16:16:01.760Z,6.00
2023-01-13T16:17:34.390Z,4.60
2023-01-13T16:19:06.305Z,4.40
2023-01-13T16:20:38.150Z,5.00
2023-01-13T16:22:14.482Z,8.80
2023-01-13T16:23:47.839Z,7.80
2023-01-13T16:25:24.795Z,3.80
2023-01-13T16:26:56.696Z,4.00
2023-01-13T16:28:28.558Z,5.80
2023-01-13T16:30:00.564Z,7.40
2023-01-13T16:31:33.712Z,5.00
2023-01-13T16:33:06.024Z,5.80
2023-01-13T16:34:38.258Z,4.20
2023-01-13T16:36:17.106Z,4.40
2023-01-13T16:37:49.390Z,6.00
2023-01-13T16:39:22.006Z,5.00
2023-01-13T16:40:53.904Z,5.00
2023-01-13T16:42:25.870Z,6.60
2023-01-13T16:43:58.051Z,8.20
2023-01-13T16:45:33.490Z,4.00
2023-01-13T16:47:05.551Z,5.80
2023-01-13T16:48:37.468Z,3.40
2023-01-13T16:50:21.691Z,8.00
2023-01-13T16:51:54.513Z,6.00
2023-01-13T16:53:26.916Z,7.20
2023-01-13T16:55:01.356Z,8.20
2023-01-13T16:56:37.346Z,4.60
2023-01-13T16:58:16.882Z,3.80
2023-01-13T16:59:48.759Z,5.60
2023-01-13T17:01:24.894Z,5.60
2023-01-13T17:02:59.192Z,6.00
2023-01-13T17:04:31.092Z,6.00
2023-01-13T17:06:03.883Z,8.60
2023-01-13T17:07:35.762Z,5.80
2023-01-13T17:09:28.231Z,5.80
2023-01-13T17:11:00.173Z,5.60
2023-01-13T17:12:32.063Z,10.00
2023-01-13T17:14:18.440Z,7.00
2023-01-13T17:15:51.023Z,8.20
2023-01-13T17:17:28.455Z,6.20
2023-01-13T17:19:00.420Z,10.20
2023-01-13T17:20:32.314Z,6.00
2023-01-13T17:22:04.628Z,8.40
2023-01-13T17:23:36.571Z,5.00
2023-01-13T17:25:08.934Z,4.80
2023-01-13T17:26:44.256Z,4.80
2023-01-13T17:28:16.404Z,7.20
2023-01-13T17:29:48.419Z,6.00
2023-01-13T17:31:20.311Z,6.80
2023-01-13T17:32:52.233Z,6.20
2023-01-13T17:34:24.132Z,9.40
2023-01-13T17:35:56.078Z,5.20
2023-01-13T17:37:28.414Z,7.00
2023-01-13T17:39:00.303Z,6.00
2023-01-13T17:40:32.129Z,8.00
2023-01-13T17:42:04.129Z,6.80
2023-01-13T17:43:36.471Z,24.60
2023-01-13T17:45:11.594Z,23.00
2023-01-13T17:46:43.719Z,16.60
2023-01-13T17:48:15.679Z,15.00
2023-01-13T17:49:47.564Z,14.40
2023-01-13T17:51:19.788Z,12.60
2023-01-13T17:52:51.723Z,8.20
2023-01-13T17:54:24.061Z,10.40
2023-01-13T17:55:56.124Z,10.00
2023-01-13T17:57:28.393Z,7.80
2023-01-13T17:59:00.450Z,11.60
2023-01-13T18:00:32.553Z,9.40
2023-01-13T18:02:05.176Z,9.40
2023-01-13T18:03:38.135Z,9.40
2023-01-13T18:05:10.218Z,7.60
2023-01-13T18:06:42.146Z,7.00
2023-01-13T18:08:14.159Z,7.40
2023-01-13T18:09:46.385Z,9.00
2023-01-13T18:11:19.356Z,8.80
2023-01-13T18:12:52.273Z,7.20
2023-01-13T18:14:24.228Z,6.60
2023-01-13T18:16:04.415Z,7.00
2023-01-13T18:17:36.403Z,11.20
2023-01-13T18:19:26.803Z,9.00
2023-01-13T18:21:17.382Z,10.80
2023-01-13T18:23:08.030Z,10.40
2023-01-13T18:24:58.773Z,8.40
2023-01-13T18:26:49.504Z,8.80
2023-01-13T18:28:21.428Z,8.20
2023-01-13T18:29:54.961Z,10.40
2023-01-13T18:31:26.923Z,7.80
2023-01-13T18:32:58.931Z,8.00
2023-01-13T18:34:30.818Z,8.80
2023-01-13T18:36:07.495Z,8.20
2023-01-13T18:37:40.723Z,18.80
2023-01-13T18:39:12.662Z,15.00
2023-01-13T18:40:45.096Z,16.40
2023-01-13T18:42:35.514Z,12.40
2023-01-13T18:44:07.493Z,11.20
2023-01-13T18:45:39.408Z,12.40
2023-01-13T18:47:11.244Z,11.80
2023-01-13T18:48:43.201Z,10.60
2023-01-13T18:50:15.331Z,8.80
2023-01-13T18:51:47.250Z,10.00
2023-01-13T18:53:19.120Z,9.20
2023-01-13T18:54:51.029Z,9.20
2023-01-13T18:56:23.004Z,13.40
2023-01-13T18:57:56.089Z,8.00
2023-01-13T18:59:28.341Z,10.80
2023-01-13T19:01:03.034Z,5.20
2023-01-13T19:02:35.051Z,9.80
2023-01-13T19:04:11.676Z,7.20
2023-01-13T19:05:43.530Z,8.80
2023-01-13T19:07:23.813Z,10.80
2023-01-13T19:08:55.903Z,8.40
2023-01-13T19:10:32.001Z,11.20
2023-01-13T19:12:06.297Z,22.80
2023-01-13T19:13:38.551Z,21.60
2023-01-13T19:15:10.968Z,16.00
2023-01-13T19:16:42.887Z,15.40
2023-01-13T19:18:16.931Z,9.60
2023-01-13T19:19:53.862Z,10.60
2023-01-13T19:21:25.852Z,13.80
2023-01-13T19:22:57.723Z,3.00
2023-01-13T19:24:29.829Z,11.00
2023-01-13T19:26:02.797Z,9.00
2023-01-13T19:27:34.657Z,9.40
2023-01-13T19:29:06.553Z,8.40
2023-01-13T19:30:38.459Z,8.20
2023-01-13T19:32:11.004Z,10.00
2023-01-13T19:33:43.170Z,10.20
2023-01-13T19:35:17.918Z,9.60
2023-01-13T19:36:51.973Z,18.20
2023-01-13T19:38:24.528Z,18.40
2023-01-13T19:39:58.248Z,19.40
2023-01-13T19:41:48.874Z,14.80
2023-01-13T19:43:39.241Z,17.20
2023-01-13T19:45:33.969Z,9.00
2023-01-13T19:47:06.748Z,11.20
2023-01-13T19:48:39.040Z,10.00
2023-01-13T19:50:11.095Z,11.80
2023-01-13T19:51:43.002Z,10.20
2023-01-13T19:53:16.074Z,8.00
2023-01-13T19:54:48.049Z,9.00
2023-01-13T19:56:19.871Z,10.00
2023-01-13T19:57:51.907Z,8.80
2023-01-13T19:59:29.246Z,8.60
2023-01-13T20:01:09.862Z,9.20
2023-01-13T20:02:48.085Z,10.80
2023-01-13T20:04:27.318Z,10.60
2023-01-13T20:06:10.297Z,19.80
2023-01-13T20:07:42.118Z,29.00
2023-01-13T20:09:13.955Z,23.60
2023-01-13T20:10:46.211Z,14.20
2023-01-13T20:12:18.387Z,17.40
2023-01-13T20:13:52.247Z,10.60
2023-01-13T20:15:24.513Z,13.20
2023-01-13T20:16:56.394Z,9.60
2023-01-13T20:18:32.784Z,13.80
2023-01-13T20:20:05.029Z,8.20
2023-01-13T20:21:38.197Z,14.00
2023-01-13T20:23:10.101Z,8.60
2023-01-13T20:24:42.061Z,14.40
2023-01-13T20:26:14.085Z,9.60
2023-01-13T20:27:46.862Z,9.60
2023-01-13T20:29:18.782Z,11.60
2023-01-13T20:30:50.813Z,13.60
2023-01-13T20:32:22.772Z,11.60
2023-01-13T20:33:54.678Z,8.40
2023-01-13T20:35:29.907Z,11.20
2023-01-13T20:37:01.921Z,8.40
2023-01-13T20:38:39.649Z,11.00
2023-01-13T20:40:14.233Z,7.20
2023-01-13T20:42:04.693Z,10.20
2023-01-13T20:43:36.695Z,13.80
2023-01-13T20:45:09.167Z,9.40
2023-01-13T20:46:41.601Z,7.40
2023-01-13T20:48:13.489Z,9.00
2023-01-13T20:49:45.342Z,14.60
2023-01-13T20:51:17.257Z,22.60
2023-01-13T20:52:49.414Z,16.60
2023-01-13T20:54:21.342Z,17.20
2023-01-13T20:55:53.188Z,12.00
2023-01-13T20:57:25.018Z,15.00
2023-01-13T20:58:56.896Z,9.40
2023-01-13T21:00:29.247Z,10.20
2023-01-13T21:02:01.270Z,11.00
2023-01-13T21:03:33.625Z,10.00
2023-01-13T21:05:06.609Z,11.60
2023-01-13T21:06:38.521Z,12.20
2023-01-13T21:08:10.459Z,10.00
2023-01-13T21:09:42.471Z,9.40
2023-01-13T21:11:34.606Z,9.00
2023-01-13T21:13:25.165Z,12.20
2023-01-13T21:15:16.150Z,12.00
2023-01-13T21:16:48.162Z,9.60
2023-01-13T21:18:38.873Z,12.00
2023-01-13T21:20:12.131Z,10.80
2023-01-13T21:21:44.047Z,9.60
2023-01-13T21:23:15.995Z,7.20
2023-01-13T21:24:47.897Z,9.00
2023-01-13T21:26:21.982Z,9.80
2023-01-13T21:27:54.979Z,11.60
2023-01-13T21:29:27.112Z,9.00
2023-01-13T21:31:05.865Z,10.00
2023-01-13T21:32:37.727Z,11.20
2023-01-13T21:34:09.658Z,12.60
2023-01-13T21:35:41.612Z,8.60
2023-01-13T21:37:14.974Z,10.80
2023-01-13T21:38:54.085Z,9.60
2023-01-13T21:40:26.067Z,7.80
2023-01-13T21:42:16.453Z,9.40
2023-01-13T21:44:20.836Z,11.20
2023-01-13T21:46:10.981Z,9.00
2023-01-13T21:47:48.715Z,7.80
2023-01-13T21:49:20.654Z,7.40
2023-01-13T21:50:52.527Z,9.20
2023-01-13T21:52:25.652Z,10.00
2023-01-13T21:53:57.559Z,8.00
2023-01-13T21:55:29.685Z,9.00
2023-01-13T21:57:01.655Z,8.60
2023-01-13T21:58:33.588Z,8.80
2023-01-13T22:00:06.042Z,13.20
2023-01-13T22:01:38.803Z,8.00
2023-01-13T22:03:29.765Z,7.60
2023-01-13T22:05:02.346Z,9.60
2023-01-13T22:06:34.407Z,8.00
2023-01-13T22:08:06.460Z,11.80
2023-01-13T22:09:39.625Z,10.20
2023-01-13T22:11:13.030Z,12.20
2023-01-13T22:12:45.105Z,6.80
2023-01-13T22:14:16.966Z,6.80
2023-01-13T22:15:48.876Z,7.00
2023-01-13T22:17:21.255Z,9.00
2023-01-13T22:18:53.915Z,8.00
2023-01-13T22:20:25.700Z,10.40
2023-01-13T22:21:57.648Z,7.00
2023-01-13T22:23:29.499Z,7.40
2023-01-13T22:25:01.371Z,9.60
2023-01-13T22:26:34.037Z,11.40
2023-01-13T22:28:06.206Z,10.60
2023-01-13T22:29:38.048Z,12.00
2023-01-13T22:31:14.698Z,8.00
2023-01-13T22:32:46.963Z,9.60
2023-01-13T22:34:18.946Z,4.80
2023-01-13T22:35:55.332Z,4.00
2023-01-13T22:37:27.173Z,8.80
2023-01-13T22:39:00.739Z,6.60
2023-01-13T22:40:32.683Z,7.20
2023-01-13T22:42:04.925Z,7.80
2023-01-13T22:43:37.165Z,7.80
2023-01-13T22:45:12.985Z,8.00
2023-01-13T22:46:44.965Z,3.80
2023-01-13T22:48:16.857Z,6.00
2023-01-13T22:49:49.352Z,5.60
2023-01-13T22:51:22.925Z,6.00
2023-01-13T22:52:54.873Z,8.00
2023-01-13T22:54:26.860Z,7.80
2023-01-13T22:55:59.014Z,5.00
2023-01-13T22:57:35.924Z,6.80
2023-01-13T22:59:14.822Z,7.80
2023-01-13T23:00:46.997Z,8.20
2023-01-13T23:02:18.878Z,7.00
2023-01-13T23:03:51.001Z,9.00
2023-01-13T23:05:22.965Z,5.00
2023-01-13T23:06:55.086Z,3.00
2023-01-13T23:08:26.959Z,4.40
2023-01-13T23:09:58.780Z,5.20
2023-01-13T23:11:30.795Z,8.40
2023-01-13T23:13:02.675Z,6.00
2023-01-13T23:14:34.612Z,5.00
2023-01-13T23:16:08.136Z,7.80
2023-01-13T23:17:40.140Z,6.80
2023-01-13T23:19:12.017Z,5.00
2023-01-13T23:20:43.862Z,5.80
2023-01-13T23:22:15.758Z,5.80
2023-01-13T23:23:47.740Z,6.00
2023-01-13T23:25:19.588Z,5.00
2023-01-13T23:26:51.850Z,5.40
2023-01-13T23:28:23.813Z,5.20
2023-01-13T23:29:56.175Z,6.60
2023-01-13T23:31:28.217Z,8.40
2023-01-13T23:33:00.114Z,5.40
2023-01-13T23:34:32.109Z,7.00
